sensor_id;sensor_type;location;lat;lon;timestamp;pressure;altitude;pressure_sealevel;temperature;humidity
47785;BME280;35233;55.686;37.848;2023-06-19T00:00:15;100019.94;;;22.88;44.54
47785;BME280;35233;55.686;37.848;2023-06-19T00:02:42;100006.06;;;22.81;44.35
47785;BME280;35233;55.686;37.848;2023-06-19T00:05:09;100012.94;;;22.86;44.61
47785;BME280;35233;55.686;37.848;2023-06-19T00:07:38;100015.75;;;22.84;44.53
47785;BME280;35233;55.686;37.848;2023-06-19T00:10:04;100010.59;;;22.81;44.56
47785;BME280;35233;55.686;37.848;2023-06-19T00:12:30;100021.47;;;22.79;44.62
47785;BME280;35233;55.686;37.848;2023-06-19T00:14:55;100019.00;;;22.76;44.43
47785;BME280;35233;55.686;37.848;2023-06-19T00:17:21;100027.22;;;22.75;44.57
47785;BME280;35233;55.686;37.848;2023-06-19T00:19:46;100014.69;;;22.74;44.58
47785;BME280;35233;55.686;37.848;2023-06-19T00:22:14;100019.13;;;22.75;44.90
47785;BME280;35233;55.686;37.848;2023-06-19T00:24:40;100017.38;;;22.74;44.62
47785;BME280;35233;55.686;37.848;2023-06-19T00:27:05;100016.00;;;22.68;44.85
47785;BME280;35233;55.686;37.848;2023-06-19T00:29:32;100019.56;;;22.69;44.60
47785;BME280;35233;55.686;37.848;2023-06-19T00:31:58;100025.81;;;22.69;44.75
47785;BME280;35233;55.686;37.848;2023-06-19T00:34:24;100022.16;;;22.70;44.72
47785;BME280;35233;55.686;37.848;2023-06-19T00:36:52;100029.59;;;22.67;44.70
47785;BME280;35233;55.686;37.848;2023-06-19T00:39:25;100024.44;;;22.64;44.95
47785;BME280;35233;55.686;37.848;2023-06-19T00:41:52;100014.97;;;22.58;44.62
47785;BME280;35233;55.686;37.848;2023-06-19T00:44:17;100022.69;;;22.63;44.91
47785;BME280;35233;55.686;37.848;2023-06-19T00:46:43;100022.81;;;22.61;44.92
47785;BME280;35233;55.686;37.848;2023-06-19T00:49:08;100022.81;;;22.61;44.67
47785;BME280;35233;55.686;37.848;2023-06-19T00:51:34;100034.66;;;22.58;44.78
47785;BME280;35233;55.686;37.848;2023-06-19T00:54:03;100027.66;;;22.56;44.95
47785;BME280;35233;55.686;37.848;2023-06-19T00:56:29;100023.38;;;22.53;45.13
47785;BME280;35233;55.686;37.848;2023-06-19T00:58:55;100034.78;;;22.57;44.64
47785;BME280;35233;55.686;37.848;2023-06-19T01:01:21;100025.84;;;22.56;44.79
47785;BME280;35233;55.686;37.848;2023-06-19T01:03:51;100018.44;;;22.47;44.92
47785;BME280;35233;55.686;37.848;2023-06-19T01:06:21;100031.44;;;22.53;44.87
47785;BME280;35233;55.686;37.848;2023-06-19T01:09:02;100020.66;;;22.53;45.05
47785;BME280;35233;55.686;37.848;2023-06-19T01:11:39;100020.81;;;22.52;44.96
47785;BME280;35233;55.686;37.848;2023-06-19T01:14:38;100034.13;;;22.53;44.83
47785;BME280;35233;55.686;37.848;2023-06-19T01:17:07;100032.28;;;22.54;44.94
47785;BME280;35233;55.686;37.848;2023-06-19T01:19:33;100031.66;;;22.50;44.88
47785;BME280;35233;55.686;37.848;2023-06-19T01:22:02;100033.50;;;22.50;44.74
47785;BME280;35233;55.686;37.848;2023-06-19T01:24:27;100028.97;;;22.50;44.92
47785;BME280;35233;55.686;37.848;2023-06-19T01:26:53;100032.66;;;22.49;44.87
47785;BME280;35233;55.686;37.848;2023-06-19T01:29:18;100040.59;;;22.51;45.05
47785;BME280;35233;55.686;37.848;2023-06-19T01:32:00;100044.03;;;22.53;44.96
47785;BME280;35233;55.686;37.848;2023-06-19T01:34:31;100037.19;;;22.49;45.18
47785;BME280;35233;55.686;37.848;2023-06-19T01:36:59;100027.56;;;22.45;44.96
47785;BME280;35233;55.686;37.848;2023-06-19T01:39:27;100030.06;;;22.48;44.80
47785;BME280;35233;55.686;37.848;2023-06-19T01:42:01;100035.44;;;22.48;44.98
47785;BME280;35233;55.686;37.848;2023-06-19T01:44:27;100038.03;;;22.49;45.17
47785;BME280;35233;55.686;37.848;2023-06-19T01:47:13;100022.41;;;22.42;44.86
47785;BME280;35233;55.686;37.848;2023-06-19T01:49:41;100045.13;;;22.50;44.89
47785;BME280;35233;55.686;37.848;2023-06-19T01:52:10;100042.97;;;22.43;44.97
47785;BME280;35233;55.686;37.848;2023-06-19T01:54:40;100033.19;;;22.42;44.95
47785;BME280;35233;55.686;37.848;2023-06-19T01:57:09;100032.88;;;22.46;45.08
47785;BME280;35233;55.686;37.848;2023-06-19T01:59:43;100039.09;;;22.47;45.08
47785;BME280;35233;55.686;37.848;2023-06-19T02:02:15;100032.97;;;22.45;44.96
47785;BME280;35233;55.686;37.848;2023-06-19T02:04:49;100022.31;;;22.43;44.88
47785;BME280;35233;55.686;37.848;2023-06-19T02:07:20;100028.22;;;22.48;44.91
47785;BME280;35233;55.686;37.848;2023-06-19T02:09:45;100033.50;;;22.50;44.83
47785;BME280;35233;55.686;37.848;2023-06-19T02:12:16;100022.09;;;22.46;44.85
47785;BME280;35233;55.686;37.848;2023-06-19T02:14:47;100038.03;;;22.49;45.24
47785;BME280;35233;55.686;37.848;2023-06-19T02:17:18;100028.44;;;22.45;45.18
47785;BME280;35233;55.686;37.848;2023-06-19T02:19:49;100030.06;;;22.48;44.90
47785;BME280;35233;55.686;37.848;2023-06-19T02:22:30;100031.88;;;22.47;44.89
47785;BME280;35233;55.686;37.848;2023-06-19T02:25:03;100041.44;;;22.51;44.81
47785;BME280;35233;55.686;37.848;2023-06-19T02:27:42;100021.34;;;22.44;45.10
47785;BME280;35233;55.686;37.848;2023-06-19T02:30:17;100016.72;;;22.46;45.02
47785;BME280;35233;55.686;37.848;2023-06-19T02:32:45;100034.34;;;22.50;44.98
47785;BME280;35233;55.686;37.848;2023-06-19T02:35:14;100028.13;;;22.50;45.09
47785;BME280;35233;55.686;37.848;2023-06-19T02:37:46;100032.44;;;22.52;45.12
47785;BME280;35233;55.686;37.848;2023-06-19T02:40:17;100015.09;;;22.44;44.95
47785;BME280;35233;55.686;37.848;2023-06-19T02:42:43;100032.44;;;22.52;44.81
47785;BME280;35233;55.686;37.848;2023-06-19T02:45:11;100036.81;;;22.53;44.85
47785;BME280;35233;55.686;37.848;2023-06-19T02:47:37;100031.34;;;22.55;44.92
47785;BME280;35233;55.686;37.848;2023-06-19T02:50:03;100030.50;;;22.54;44.76
47785;BME280;35233;55.686;37.848;2023-06-19T02:52:31;100026.91;;;22.54;45.10
47785;BME280;35233;55.686;37.848;2023-06-19T02:54:57;100026.28;;;22.50;44.99
47785;BME280;35233;55.686;37.848;2023-06-19T02:57:34;100027.91;;;22.53;45.05
47785;BME280;35233;55.686;37.848;2023-06-19T03:00:06;100028.53;;;22.56;45.08
47785;BME280;35233;55.686;37.848;2023-06-19T03:02:34;100014.75;;;22.48;44.96
47785;BME280;35233;55.686;37.848;2023-06-19T03:05:00;100024.00;;;22.57;44.76
47785;BME280;35233;55.686;37.848;2023-06-19T03:07:31;100008.28;;;22.51;44.77
47785;BME280;35233;55.686;37.848;2023-06-19T03:09:57;100024.75;;;22.59;45.04
47785;BME280;35233;55.686;37.848;2023-06-19T03:12:22;100013.88;;;22.60;44.66
47785;BME280;35233;55.686;37.848;2023-06-19T03:14:48;100012.81;;;22.63;44.75
47785;BME280;35233;55.686;37.848;2023-06-19T03:17:13;100022.59;;;22.64;44.88
47785;BME280;35233;55.686;37.848;2023-06-19T03:19:39;100018.06;;;22.65;44.56
47785;BME280;35233;55.686;37.848;2023-06-19T03:22:17;100017.31;;;22.63;45.05
47785;BME280;35233;55.686;37.848;2023-06-19T03:24:42;100016.34;;;22.64;44.82
47785;BME280;35233;55.686;37.848;2023-06-19T03:27:08;100011.91;;;22.63;44.88
47785;BME280;35233;55.686;37.848;2023-06-19T03:29:36;100025.16;;;22.66;44.98
47785;BME280;35233;55.686;37.848;2023-06-19T03:32:07;100023.22;;;22.68;44.85
47785;BME280;35233;55.686;37.848;2023-06-19T03:34:33;100024.94;;;22.69;44.69
47785;BME280;35233;55.686;37.848;2023-06-19T03:36:59;100029.38;;;22.70;45.01
47785;BME280;35233;55.686;37.848;2023-06-19T03:39:24;100022.91;;;22.72;44.93
47785;BME280;35233;55.686;37.848;2023-06-19T03:41:59;100021.81;;;22.75;44.97
47785;BME280;35233;55.686;37.848;2023-06-19T03:44:45;100018.59;;;22.70;44.77
47785;BME280;35233;55.686;37.848;2023-06-19T03:47:10;100028.16;;;22.74;44.99
47785;BME280;35233;55.686;37.848;2023-06-19T03:49:38;100033.31;;;22.77;44.86
47785;BME280;35233;55.686;37.848;2023-06-19T03:52:07;100026.09;;;22.77;44.67
47785;BME280;35233;55.686;37.848;2023-06-19T03:54:42;100029.78;;;22.76;44.78
47785;BME280;35233;55.686;37.848;2023-06-19T03:57:10;100035.78;;;22.80;45.02
47785;BME280;35233;55.686;37.848;2023-06-19T03:59:36;100031.06;;;22.83;44.52
47785;BME280;35233;55.686;37.848;2023-06-19T04:02:21;100013.75;;;22.75;44.59
47785;BME280;35233;55.686;37.848;2023-06-19T04:04:56;100025.44;;;22.87;44.71
47785;BME280;35233;55.686;37.848;2023-06-19T04:07:25;100018.16;;;22.76;44.41
47785;BME280;35233;55.686;37.848;2023-06-19T04:09:50;100026.31;;;22.87;44.65
47785;BME280;35233;55.686;37.848;2023-06-19T04:12:25;100022.84;;;22.85;44.38
47785;BME280;35233;55.686;37.848;2023-06-19T04:14:50;100034.59;;;22.97;44.45
47785;BME280;35233;55.686;37.848;2023-06-19T04:17:18;100018.94;;;22.89;44.35
47785;BME280;35233;55.686;37.848;2023-06-19T04:19:53;100031.03;;;22.96;44.44
47785;BME280;35233;55.686;37.848;2023-06-19T04:22:18;100020.03;;;22.99;44.31
47785;BME280;35233;55.686;37.848;2023-06-19T04:24:46;100029.72;;;23.02;44.33
47785;BME280;35233;55.686;37.848;2023-06-19T04:27:15;100029.50;;;23.05;44.28
47785;BME280;35233;55.686;37.848;2023-06-19T04:29:48;100024.75;;;23.09;44.37
47785;BME280;35233;55.686;37.848;2023-06-19T04:32:13;100020.88;;;23.13;44.26
47785;BME280;35233;55.686;37.848;2023-06-19T04:34:44;100028.81;;;23.14;44.53
47785;BME280;35233;55.686;37.848;2023-06-19T04:37:11;100014.59;;;23.12;44.16
47785;BME280;35233;55.686;37.848;2023-06-19T04:39:40;100013.72;;;23.12;44.12
47785;BME280;35233;55.686;37.848;2023-06-19T04:42:15;100025.56;;;23.22;43.96
47785;BME280;35233;55.686;37.848;2023-06-19T04:45:08;100025.31;;;23.25;43.98
47785;BME280;35233;55.686;37.848;2023-06-19T04:47:37;100010.56;;;23.18;44.05
47785;BME280;35233;55.686;37.848;2023-06-19T04:50:21;99998.19;;;23.15;44.04
47785;BME280;35233;55.686;37.848;2023-06-19T04:52:47;100024.00;;;23.31;43.75
47785;BME280;35233;55.686;37.848;2023-06-19T04:55:15;100025.09;;;23.28;43.93
47785;BME280;35233;55.686;37.848;2023-06-19T05:00:47;100008.91;;;23.28;44.05
47785;BME280;35233;55.686;37.848;2023-06-19T05:06:06;100032.16;;;23.42;43.87
47785;BME280;35233;55.686;37.848;2023-06-19T05:08:59;100010.41;;;23.32;43.82
47785;BME280;35233;55.686;37.848;2023-06-19T05:14:09;100029.22;;;23.45;43.72
47785;BME280;35233;55.686;37.848;2023-06-19T05:17:00;100020.03;;;23.47;43.58
47785;BME280;35233;55.686;37.848;2023-06-19T05:19:48;100029.09;;;23.46;43.58
47785;BME280;35233;55.686;37.848;2023-06-19T05:22:34;100006.03;;;23.42;43.55
47785;BME280;35233;55.686;37.848;2023-06-19T05:25:01;100019.81;;;23.50;43.81
47785;BME280;35233;55.686;37.848;2023-06-19T05:27:27;100028.38;;;23.56;43.64
47785;BME280;35233;55.686;37.848;2023-06-19T05:30:12;100021.03;;;23.58;43.46
47785;BME280;35233;55.686;37.848;2023-06-19T05:32:38;100018.25;;;23.59;43.57
47785;BME280;35233;55.686;37.848;2023-06-19T05:35:04;100030.59;;;23.62;43.58
47785;BME280;35233;55.686;37.848;2023-06-19T05:37:35;100014.56;;;23.60;43.45
47785;BME280;35233;55.686;37.848;2023-06-19T05:40:01;100015.19;;;23.64;43.33
47785;BME280;35233;55.686;37.848;2023-06-19T05:42:26;100011.50;;;23.65;43.31
47785;BME280;35233;55.686;37.848;2023-06-19T05:44:52;100009.78;;;23.64;43.57
47785;BME280;35233;55.686;37.848;2023-06-19T05:47:17;100011.28;;;23.68;43.26
47785;BME280;35233;55.686;37.848;2023-06-19T05:49:46;100009.22;;;23.71;43.30
47785;BME280;35233;55.686;37.848;2023-06-19T05:52:12;100009.34;;;23.70;43.57
47785;BME280;35233;55.686;37.848;2023-06-19T05:54:37;100002.97;;;23.71;43.39
47785;BME280;35233;55.686;37.848;2023-06-19T05:57:03;100004.69;;;23.72;43.01
47785;BME280;35233;55.686;37.848;2023-06-19T05:59:29;100009.09;;;23.73;43.22
47785;BME280;35233;55.686;37.848;2023-06-19T06:02:14;100001.75;;;23.75;43.27
47785;BME280;35233;55.686;37.848;2023-06-19T06:04:40;100002.59;;;23.76;43.17
47785;BME280;35233;55.686;37.848;2023-06-19T06:07:06;99999.81;;;23.77;43.33
47785;BME280;35233;55.686;37.848;2023-06-19T06:12:15;100004.97;;;23.80;43.38
47785;BME280;35233;55.686;37.848;2023-06-19T06:14:41;99997.72;;;23.81;43.38
47785;BME280;35233;55.686;37.848;2023-06-19T06:17:07;100003.72;;;23.84;43.28
47785;BME280;35233;55.686;37.848;2023-06-19T06:22:42;100007.19;;;23.86;43.20
47785;BME280;35233;55.686;37.848;2023-06-19T06:25:10;100006.94;;;23.89;43.25
47785;BME280;35233;55.686;37.848;2023-06-19T06:27:36;99993.56;;;23.88;43.21
47785;BME280;35233;55.686;37.848;2023-06-19T06:30:16;99985.94;;;23.82;43.22
47785;BME280;35233;55.686;37.848;2023-06-19T06:33:13;100016.50;;;23.93;43.17
47785;BME280;35233;55.686;37.848;2023-06-19T06:35:58;100009.28;;;23.94;43.29
47785;BME280;35233;55.686;37.848;2023-06-19T06:38:27;100011.00;;;23.95;43.22
47785;BME280;35233;55.686;37.848;2023-06-19T06:41:05;100010.00;;;23.96;43.17
47785;BME280;35233;55.686;37.848;2023-06-19T06:43:32;99983.66;;;23.88;43.16
47785;BME280;35233;55.686;37.848;2023-06-19T06:45:58;100004.50;;;23.98;43.21
47785;BME280;35233;55.686;37.848;2023-06-19T06:48:23;99995.66;;;23.95;42.90
47785;BME280;35233;55.686;37.848;2023-06-19T06:50:49;99993.81;;;23.96;43.19
47785;BME280;35233;55.686;37.848;2023-06-19T06:53:14;99988.81;;;23.91;43.02
47785;BME280;35233;55.686;37.848;2023-06-19T06:55:39;99992.97;;;23.95;43.17
47785;BME280;35233;55.686;37.848;2023-06-19T07:03:42;100001.81;;;23.98;43.15
47785;BME280;35233;55.686;37.848;2023-06-19T07:06:08;99981.19;;;23.97;42.98
47785;BME280;35233;55.686;37.848;2023-06-19T07:08:33;99986.47;;;23.98;42.90
47785;BME280;35233;55.686;37.848;2023-06-19T07:10:59;99996.16;;;24.01;42.80
47785;BME280;35233;55.686;37.848;2023-06-19T07:13:27;99972.47;;;23.93;42.86
47785;BME280;35233;55.686;37.848;2023-06-19T07:15:52;99961.06;;;23.89;43.07
47785;BME280;35233;55.686;37.848;2023-06-19T07:20:56;99981.44;;;24.05;43.06
47785;BME280;35233;55.686;37.848;2023-06-19T07:23:22;99976.88;;;24.05;42.97
47785;BME280;35233;55.686;37.848;2023-06-19T07:25:47;99975.09;;;24.06;42.87
47785;BME280;35233;55.686;37.848;2023-06-19T07:28:13;99976.03;;;24.05;42.99
47785;BME280;35233;55.686;37.848;2023-06-19T07:30:39;99984.03;;;24.06;42.85
47785;BME280;35233;55.686;37.848;2023-06-19T07:33:05;99964.50;;;24.03;42.87
47785;BME280;35233;55.686;37.848;2023-06-19T07:35:30;99971.38;;;24.07;42.84
47785;BME280;35233;55.686;37.848;2023-06-19T07:37:56;99968.69;;;24.07;42.85
47785;BME280;35233;55.686;37.848;2023-06-19T07:40:25;99961.59;;;24.06;42.94
47785;BME280;35233;55.686;37.848;2023-06-19T07:42:55;99917.41;;;23.84;42.69
47785;BME280;35233;55.686;37.848;2023-06-19T07:45:43;99946.97;;;23.97;42.99
47785;BME280;35233;55.686;37.848;2023-06-19T07:48:12;99967.59;;;24.09;42.91
47785;BME280;35233;55.686;37.848;2023-06-19T07:50:43;99971.88;;;24.12;42.94
47785;BME280;35233;55.686;37.848;2023-06-19T07:53:32;99941.34;;;24.00;42.73
47785;BME280;35233;55.686;37.848;2023-06-19T07:56:18;99936.19;;;23.97;43.14
47785;BME280;35233;55.686;37.848;2023-06-19T07:58:44;99972.59;;;24.14;42.96
47785;BME280;35233;55.686;37.848;2023-06-19T08:01:12;99960.00;;;24.14;42.67
47785;BME280;35233;55.686;37.848;2023-06-19T08:03:37;99954.69;;;24.13;42.86
47785;BME280;35233;55.686;37.848;2023-06-19T08:06:03;99962.56;;;24.16;42.87
47785;BME280;35233;55.686;37.848;2023-06-19T08:08:31;99953.59;;;24.15;42.99
47785;BME280;35233;55.686;37.848;2023-06-19T08:11:31;99954.44;;;24.16;42.99
47785;BME280;35233;55.686;37.848;2023-06-19T08:14:23;99953.34;;;24.18;42.90
47785;BME280;35233;55.686;37.848;2023-06-19T08:16:51;99956.16;;;24.17;42.86
47785;BME280;35233;55.686;37.848;2023-06-19T08:19:17;99942.31;;;24.10;42.73
47785;BME280;35233;55.686;37.848;2023-06-19T08:21:42;99958.63;;;24.20;42.92
47785;BME280;35233;55.686;37.848;2023-06-19T08:24:14;99958.63;;;24.20;42.90
47785;BME280;35233;55.686;37.848;2023-06-19T08:26:45;99958.41;;;24.23;42.73
47785;BME280;35233;55.686;37.848;2023-06-19T08:29:11;99956.66;;;24.22;42.59
47785;BME280;35233;55.686;37.848;2023-06-19T08:31:39;99962.91;;;24.23;42.75
47785;BME280;35233;55.686;37.848;2023-06-19T08:34:26;99954.69;;;24.24;42.90
47785;BME280;35233;55.686;37.848;2023-06-19T08:36:58;99953.72;;;24.25;42.62
47785;BME280;35233;55.686;37.848;2023-06-19T08:39:42;99945.59;;;24.25;42.83
47785;BME280;35233;55.686;37.848;2023-06-19T08:42:28;99947.34;;;24.26;42.76
47785;BME280;35233;55.686;37.848;2023-06-19T08:47:59;99940.94;;;24.27;42.62
47785;BME280;35233;55.686;37.848;2023-06-19T08:50:35;99940.72;;;24.30;42.63
47785;BME280;35233;55.686;37.848;2023-06-19T08:53:21;99936.31;;;24.29;42.59
47785;BME280;35233;55.686;37.848;2023-06-19T08:55:48;99925.25;;;24.32;42.81
47785;BME280;35233;55.686;37.848;2023-06-19T08:58:32;99936.91;;;24.33;42.53
47785;BME280;35233;55.686;37.848;2023-06-19T09:01:01;99923.06;;;24.26;42.47
47785;BME280;35233;55.686;37.848;2023-06-19T09:03:29;99913.09;;;24.27;42.47
47785;BME280;35233;55.686;37.848;2023-06-19T09:05:54;99914.44;;;24.32;42.55
47785;BME280;35233;55.686;37.848;2023-06-19T09:08:21;99921.44;;;24.35;42.58
47785;BME280;35233;55.686;37.848;2023-06-19T09:11:00;99919.72;;;24.34;42.52
47785;BME280;35233;55.686;37.848;2023-06-19T09:16:13;99926.44;;;24.39;42.80
47785;BME280;35233;55.686;37.848;2023-06-19T09:18:43;99905.50;;;24.32;42.25
47785;BME280;35233;55.686;37.848;2023-06-19T09:21:23;99890.66;;;24.26;42.57
47785;BME280;35233;55.686;37.848;2023-06-19T09:23:49;99904.34;;;24.34;42.33
47785;BME280;35233;55.686;37.848;2023-06-19T09:29:52;99917.88;;;24.46;42.60
47785;BME280;35233;55.686;37.848;2023-06-19T09:32:24;99900.31;;;24.40;42.49
47785;BME280;35233;55.686;37.848;2023-06-19T09:35:09;99918.38;;;24.51;42.31
47785;BME280;35233;55.686;37.848;2023-06-19T09:37:39;99912.84;;;24.52;42.20
47785;BME280;35233;55.686;37.848;2023-06-19T09:40:06;99913.97;;;24.50;42.66
47785;BME280;35233;55.686;37.848;2023-06-19T09:45:22;99908.16;;;24.54;41.94
47785;BME280;35233;55.686;37.848;2023-06-19T09:47:51;99913.44;;;24.56;41.98
47785;BME280;35233;55.686;37.848;2023-06-19T09:50:22;99907.06;;;24.57;41.96
47785;BME280;35233;55.686;37.848;2023-06-19T09:52:49;99913.31;;;24.57;42.29
47785;BME280;35233;55.686;37.848;2023-06-19T09:55:19;99906.81;;;24.60;42.04
47785;BME280;35233;55.686;37.848;2023-06-19T09:57:44;99890.72;;;24.58;42.50
47785;BME280;35233;55.686;37.848;2023-06-19T10:00:11;99898.69;;;24.60;41.85
47785;BME280;35233;55.686;37.848;2023-06-19T10:02:40;99894.03;;;24.62;41.86
47785;BME280;35233;55.686;37.848;2023-06-19T10:05:06;99881.53;;;24.61;41.82
47785;BME280;35233;55.686;37.848;2023-06-19T10:07:38;99875.13;;;24.62;42.10
47785;BME280;35233;55.686;37.848;2023-06-19T10:10:25;99877.31;;;24.68;41.85
47785;BME280;35233;55.686;37.848;2023-06-19T10:13:14;99877.91;;;24.72;41.81
47785;BME280;35233;55.686;37.848;2023-06-19T10:15:42;99881.47;;;24.72;42.00
47785;BME280;35233;55.686;37.848;2023-06-19T10:18:26;99876.94;;;24.73;42.17
47785;BME280;35233;55.686;37.848;2023-06-19T10:20:54;99873.09;;;24.75;42.11
47785;BME280;35233;55.686;37.848;2023-06-19T10:26:06;99857.88;;;24.74;42.05
47785;BME280;35233;55.686;37.848;2023-06-19T10:28:50;99869.28;;;24.78;41.92
47785;BME280;35233;55.686;37.848;2023-06-19T10:31:15;99870.16;;;24.78;42.28
47785;BME280;35233;55.686;37.848;2023-06-19T10:33:59;99869.16;;;24.79;41.85
47785;BME280;35233;55.686;37.848;2023-06-19T10:36:25;99863.03;;;24.77;42.31
47785;BME280;35233;55.686;37.848;2023-06-19T10:39:09;99864.34;;;24.83;42.09
47785;BME280;35233;55.686;37.848;2023-06-19T10:41:39;99855.41;;;24.82;42.32
47785;BME280;35233;55.686;37.848;2023-06-19T10:44:06;99850.84;;;24.83;42.27
47785;BME280;35233;55.686;37.848;2023-06-19T10:46:38;99855.41;;;24.82;41.98
47785;BME280;35233;55.686;37.848;2023-06-19T10:49:06;99861.28;;;24.88;42.07
47785;BME280;35233;55.686;37.848;2023-06-19T10:51:40;99861.28;;;24.88;42.08
47785;BME280;35233;55.686;37.848;2023-06-19T10:54:06;99859.44;;;24.88;41.91
47785;BME280;35233;55.686;37.848;2023-06-19T10:56:32;99849.63;;;24.87;42.17
47785;BME280;35233;55.686;37.848;2023-06-19T10:58:59;99848.47;;;24.90;42.36
47785;BME280;35233;55.686;37.848;2023-06-19T11:01:39;99844.06;;;24.89;42.18
47785;BME280;35233;55.686;37.848;2023-06-19T11:04:07;99849.22;;;24.92;42.17
47785;BME280;35233;55.686;37.848;2023-06-19T11:06:51;99853.50;;;24.94;42.21
47785;BME280;35233;55.686;37.848;2023-06-19T11:09:17;99849.78;;;24.95;41.80
47785;BME280;35233;55.686;37.848;2023-06-19T11:11:48;99847.94;;;24.96;41.90
47785;BME280;35233;55.686;37.848;2023-06-19T11:14:32;99841.69;;;24.95;42.16
47785;BME280;35233;55.686;37.848;2023-06-19T11:16:57;99831.88;;;24.94;42.11
47785;BME280;35233;55.686;37.848;2023-06-19T11:19:24;99832.63;;;24.96;41.73
47785;BME280;35233;55.686;37.848;2023-06-19T11:21:57;99831.50;;;24.99;41.86
47785;BME280;35233;55.686;37.848;2023-06-19T11:24:22;99839.34;;;25.02;41.70
47785;BME280;35233;55.686;37.848;2023-06-19T11:27:06;99822.78;;;24.95;41.86
47785;BME280;35233;55.686;37.848;2023-06-19T11:29:59;99827.25;;;25.06;41.64
47785;BME280;35233;55.686;37.848;2023-06-19T11:35:17;99821.59;;;25.09;41.83
47785;BME280;35233;55.686;37.848;2023-06-19T11:37:43;99821.25;;;25.14;41.46
47785;BME280;35233;55.686;37.848;2023-06-19T11:40:12;99824.13;;;25.22;41.81
47785;BME280;35233;55.686;37.848;2023-06-19T11:42:48;99809.22;;;25.27;41.58
47785;BME280;35233;55.686;37.848;2023-06-19T11:45:13;99805.84;;;25.35;41.41
47785;BME280;35233;55.686;37.848;2023-06-19T11:47:39;99798.59;;;25.36;41.31
47785;BME280;35233;55.686;37.848;2023-06-19T11:50:05;99810.75;;;25.51;40.83
47785;BME280;35233;55.686;37.848;2023-06-19T11:52:31;99809.50;;;25.55;40.93
47785;BME280;35233;55.686;37.848;2023-06-19T11:55:18;99805.69;;;25.58;41.11
47785;BME280;35233;55.686;37.848;2023-06-19T11:57:47;99795.16;;;25.64;40.48
47785;BME280;35233;55.686;37.848;2023-06-19T12:00:14;99797.03;;;25.73;40.63
47785;BME280;35233;55.686;37.848;2023-06-19T12:02:44;99808.59;;;25.75;40.55
47785;BME280;35233;55.686;37.848;2023-06-19T12:05:30;99804.19;;;25.74;40.41
47785;BME280;35233;55.686;37.848;2023-06-19T12:07:56;99803.03;;;25.77;40.38
47785;BME280;35233;55.686;37.848;2023-06-19T12:10:43;99797.22;;;25.82;40.21
47785;BME280;35233;55.686;37.848;2023-06-19T12:16:11;99795.44;;;25.92;40.10
47785;BME280;35233;55.686;37.848;2023-06-19T12:18:40;99784.75;;;26.00;39.89
47785;BME280;35233;55.686;37.848;2023-06-19T12:21:06;99791.06;;;26.01;40.37
47785;BME280;35233;55.686;37.848;2023-06-19T12:23:50;99786.03;;;25.96;40.65
47785;BME280;35233;55.686;37.848;2023-06-19T12:29:03;99787.03;;;25.95;40.55
47785;BME280;35233;55.686;37.848;2023-06-19T12:31:29;99783.63;;;26.03;40.13
47785;BME280;35233;55.686;37.848;2023-06-19T12:33:55;99780.22;;;26.10;39.78
47785;BME280;35233;55.686;37.848;2023-06-19T12:36:20;99766.13;;;26.16;39.59
47785;BME280;35233;55.686;37.848;2023-06-19T12:39:05;99781.41;;;26.27;39.69
47785;BME280;35233;55.686;37.848;2023-06-19T12:41:48;99765.72;;;26.31;40.01
47785;BME280;35233;55.686;37.848;2023-06-19T12:44:14;99767.44;;;26.41;39.70
47785;BME280;35233;55.686;37.848;2023-06-19T12:46:44;99758.16;;;26.44;39.59
47785;BME280;35233;55.686;37.848;2023-06-19T12:49:28;99765.78;;;26.50;39.13
47785;BME280;35233;55.686;37.848;2023-06-19T12:52:12;99755.94;;;26.59;38.95
47785;BME280;35233;55.686;37.848;2023-06-19T12:54:38;99725.53;;;26.55;39.22
47785;BME280;35233;55.686;37.848;2023-06-19T12:57:07;99748.22;;;26.74;39.08
47785;BME280;35233;55.686;37.848;2023-06-19T12:59:32;99738.94;;;26.67;38.80
47785;BME280;35233;55.686;37.848;2023-06-19T13:02:17;99752.03;;;26.81;39.00
47785;BME280;35233;55.686;37.848;2023-06-19T13:04:42;99724.50;;;26.76;39.23
47785;BME280;35233;55.686;37.848;2023-06-19T13:07:08;99741.03;;;26.92;38.92
47785;BME280;35233;55.686;37.848;2023-06-19T13:12:36;99743.75;;;26.92;39.36
47785;BME280;35233;55.686;37.848;2023-06-19T13:15:20;99746.53;;;27.10;38.74
47785;BME280;35233;55.686;37.848;2023-06-19T13:17:51;99719.97;;;27.14;38.76
47785;BME280;35233;55.686;37.848;2023-06-19T13:20:19;99741.41;;;27.26;38.97
47785;BME280;35233;55.686;37.848;2023-06-19T13:23:03;99725.56;;;27.22;38.57
47785;BME280;35233;55.686;37.848;2023-06-19T13:25:29;99699.75;;;27.18;38.52
47785;BME280;35233;55.686;37.848;2023-06-19T13:27:55;99705.84;;;27.29;38.52
47785;BME280;35233;55.686;37.848;2023-06-19T13:30:23;99723.31;;;27.45;38.32
47785;BME280;35233;55.686;37.848;2023-06-19T13:32:51;99720.00;;;27.51;38.54
47785;BME280;35233;55.686;37.848;2023-06-19T13:35:43;99722.53;;;27.62;38.32
47785;BME280;35233;55.686;37.848;2023-06-19T13:38:11;99689.56;;;27.57;38.12
47785;BME280;35233;55.686;37.848;2023-06-19T13:40:37;99704.88;;;27.76;38.16
47785;BME280;35233;55.686;37.848;2023-06-19T13:43:02;99705.31;;;27.81;38.18
47785;BME280;35233;55.686;37.848;2023-06-19T13:45:29;99695.97;;;27.84;38.21
47785;BME280;35233;55.686;37.848;2023-06-19T13:47:56;99702.97;;;27.86;38.17
47785;BME280;35233;55.686;37.848;2023-06-19T13:50:23;99707.34;;;27.97;37.87
47785;BME280;35233;55.686;37.848;2023-06-19T13:52:49;99694.00;;;28.04;38.01